DW1053 Weather Reports


Display with metric or nautical units.
time (UTC)temp
F
wind
direction
speed
MPH
gust
MPH
rain 1hr
in
rain 24hr
in
rain mn
in
humidity
%
barometer
mb
20240622100207 58 50 0.0 0.0 0.08 1.14 0.26 93 1013.3
20240622090219 60 347 0.0 5.0 0.17 1.06 0.18 90 1012.7
20240622070209 62 128 0.0 2.0 0.00 0.90 0.01 90 1012.3
20240622060208 60 118 0.0 2.0 0.00 0.91 0.01 93 1012.3
20240622050207 60 115 0.0 3.0 0.00 0.92 0.01 94 1012.3
20240622040208 59 122 0.0 0.0 0.00 0.94 0.01 94 1012.4
20240622030208 60 136 0.0 0.0 0.00 0.95 0.01 94 1012.6
20240622010207 60 159 0.0 0.0 0.00 0.95 0.01 94 1013.4
20240622000208 61 159 0.0 0.0 0.00 0.95 0.01 94 1013.9
20240621230207 61 159 0.0 2.0 0.01 0.95 0.01 93 1013.5
20240621220208 61 237 0.0 1.0 0.00 0.94 0.94 93 1013.3
20240621210209 62 173 0.0 0.0 0.01 0.94 0.94 93 1012.5
20240621200208 62 174 0.0 1.0 0.01 0.94 0.94 92 1012.3
20240621190207 63 194 0.0 0.0 0.00 0.93 0.93 91 1011.7
20240621180209 64 292 0.0 0.0 0.04 0.93 0.93 91 1011.2
20240621170208 67 297 5.0 12.0 0.02 0.89 0.88 81 1010.9
20240621160207 69 119 0.0 0.0 0.00 0.87 0.86 86 1011.4
20240621150208 68 119 0.0 1.0 0.00 0.87 0.86 85 1011.1
20240621140221 67 134 0.0 3.0 0.00 0.87 0.86 88 1011.5
20240621130208 67 117 0.0 3.0 0.00 0.87 0.86 89 1011.3
20240621120208 66 113 0.0 5.0 0.80 0.87 0.86 91 1011.7
20240621110214 76 105 0.0 11.0 0.00 0.07 0.06 62 1011.0